aviador You're here:

KMSS Decoded Metar

MASSENA in NY, USA
Report Time2018-01-19 16:53:00
UTC Time2018-01-19 17:13:36
Flight Rules vfr VFR
Wind220° at 13 kt
W.Decomp.*RWY 23: 13.0 kt HW 0.9 kt RCW
RWY 27: 10.5 kt HW 7.6 kt LCW
W.Rank220° ranks 1
Current wind is above 220° avg. (9.2)
Visibility9999 m
Phenomena:N/A
Clouds:Overcast 034 Hf
Expected CloudBase > 1,200 ft AGL from Temp-Dew spread
Ceiling3,400 ft
Temp-2°C (ISA -17)
Dew Point-5°C (80% RH)
AAT-9.3°C
QNH1012 hPa
Density Alt-1,722 ft
Elevation217 ft
Report Wrong Elevation
Raw Report
METAR KMSS 191653Z AUTO 22013KT 8SM OVC034 M02/M05 A2988 RMK AO2 SLP124
T10171050=

Extra information for KMSS:More info

Metar Taf Metar & Taf Last 4 Metars F.Rules Stats Wind Profile Meteogram Temp Stats Airport Information Weather charts Add Link Nearby VenuesMetar ALERT Operation Metar Decoded Social comments

AIRNAV info for KMSS